Terminal Aerodrome Forecast
Issued by NWS

Current Version | Previous Version | Text Only | Print | Product List | Glossary On
Versions: 1 2 3 4 5 6 7 8 9 10 11 12 13 14 15 16 17 18 19 20 21 22 23 24 25 26
000
FTUS44 KLIX 021740
TAFHUM
TAF
KHUM 021740Z 0218/0318 VRB03KT P6SM FEW250
     FM022000 17009KT P6SM SCT200
     FM030200 21005KT P6SM FEW250
     FM030500 00000KT P6SM FEW250
     FM031700 35006KT P6SM BKN250=

USA.gov is the U.S. government's official web portal to all federal, state and local government web resources and services.